Abegall, Kentucky
Current Conditions -  °F | °C
As of 10:15 PM on Thursday 27 Nov 2014 (Local Time) from KFGX Reporting Station
Overcast Overcast  
Wind Chill: 20°   Ceiling: 3200
Heat Index: 29°   Visibility: 10mi
Dew Point: 23°   Wind: 12mph
Humidity: 78%   Direction: 280°W
Pressure: 30.39"   Gusts: 18mph
Location:  38.6546°N, 83.9578°W
Report Text: KFGX 280315Z AUTO 28010G16KT 10SM SCT020 OVC032 M01/M05 A3039 RMK AO2 T10151048
Loading
Personal Weather Stations






























Interactive Weather Map New forecast layout! Learn more

10-Day Weather Forecast

Advertisements
Track Severe Weather on mobile